Tropical Cyclones
[Index]
Main Index Home Page Stock Weather Photos Extreme Storms Discussion Storm News and Storm Chasing Reports Tropical Cyclones / Hurricanes / Typhoons Weather Data and Links Wild Fires / Bushfires Weather Observation Techniques Weather Picture Catalogue Tornado Pictures and Reports Stock Video Footage and DVDs for sale
Season 1966-1967 Tropical Cyclone GILBERTE Track Map
Season 1966-1967 Summaries: [BoM-AU] [JTWC-AU] [JTWC-SIO] [JTWC-SPAC] [JTWC-SH]
<<- Previous TC | JTWC 1966-1967 Season | Next TC ->>

click for intensity scale information  Lat/long Grid: Show Hide

 Date Labels: Show Hide

Joint Typhoon Warning Centre Cyclone Data

Name: GILBERTE
Number: 629 / 6714

08 Jan 1967 06:00 UTC to 18 Jan 1967 18:00 UTC

    date/time    lat    long     hPa   cat  kts
1967-01-08 06    8.8    71.0                              
1967-01-08 12    9.7    69.6                              
1967-01-08 18   10.5    68.2                              
1967-01-09 00   11.1    66.7                              
1967-01-09 06   11.6    65.3                              
1967-01-09 12   11.9    64.4                              
1967-01-09 18   12.2    64.1                              
1967-01-10 00   12.4    63.9                              
1967-01-10 06   12.6    63.7                              
1967-01-10 12   12.9    63.4                              
1967-01-10 18   13.2    63.1                              
1967-01-11 00   13.4    62.8                              
1967-01-11 06   13.7    62.5                              
1967-01-11 12   13.9    62.0                              
1967-01-11 18   14.2    61.3                              
1967-01-12 00   14.7    60.6                              
1967-01-12 06   15.2    60.0                              
1967-01-12 12   15.5    59.4                              
1967-01-12 18   15.8    58.9                              
1967-01-13 00   16.5    58.5                              
1967-01-13 06   17.2    58.2                              
1967-01-13 12   18.0    57.9                              
1967-01-13 18   18.8    57.7                              
1967-01-14 00   19.3    57.7                              
1967-01-14 06   19.8    57.7                              
1967-01-14 12   21.2    57.8                              
1967-01-14 18   22.7    57.8                              
1967-01-15 00   23.2    57.7                              
1967-01-15 06   23.8    57.5                              
1967-01-15 12   25.3    57.4                              
1967-01-15 18   26.9    57.6                              
1967-01-16 00   27.9    58.3                              
1967-01-16 06   29.0    59.0                              
1967-01-16 12   30.6    59.4                              
1967-01-16 18   32.2    59.9                              
1967-01-17 00   33.0    60.5                              
1967-01-17 06   33.8    61.2                              
1967-01-17 12   35.8    62.2                              
1967-01-17 18   37.6    63.5                              
1967-01-18 00   38.2    65.1                              
1967-01-18 06   38.7    66.8                              
1967-01-18 12   39.1    67.4                              
1967-01-18 18   39.4    67.0                              
Winds are 1-min average.

Tropical cyclone tracks developed by Michael Bath using data from the Joint Typhoon Warning Centre Best Tracks and Google Maps.


[Australian Severe Weather index] [Copyright Notice] [Email Contacts] [Search This Site] [Privacy Policy]
Document: tropical_cyclone_gilberte.htm Updated: 18 September 2016